createdAt,value
2018-08-20T00:01:32.647Z,68.84
2018-08-20T00:03:58.957Z,69.11
2018-08-20T00:06:25.272Z,69.11
2018-08-20T00:08:51.586Z,69.41
2018-08-20T00:11:17.911Z,69.42
2018-08-20T00:13:44.230Z,70.35
2018-08-20T00:16:10.531Z,70.34
2018-08-20T00:18:36.841Z,70.16
2018-08-20T00:21:03.219Z,70.41
2018-08-20T00:23:29.531Z,69.68
2018-08-20T00:25:55.881Z,69.28
2018-08-20T00:28:22.216Z,69.03
2018-08-20T00:30:48.563Z,69.13
2018-08-20T00:33:14.881Z,69.08
2018-08-20T00:35:41.198Z,69.19
2018-08-20T00:38:07.548Z,69.69
2018-08-20T00:40:33.906Z,69.30
2018-08-20T00:43:00.210Z,69.59
2018-08-20T00:45:26.520Z,69.83
2018-08-20T00:47:52.830Z,69.79
2018-08-20T00:50:19.140Z,69.83
2018-08-20T00:52:45.447Z,70.16
2018-08-20T00:55:11.754Z,69.88
2018-08-20T00:57:38.064Z,70.06
2018-08-20T01:00:04.439Z,70.28
2018-08-20T01:02:30.764Z,70.26
2018-08-20T01:04:57.077Z,70.83
2018-08-20T01:07:23.394Z,71.20
2018-08-20T01:09:49.704Z,71.90
2018-08-20T01:12:16.099Z,72.27
2018-08-20T01:14:42.420Z,72.42
2018-08-20T01:17:08.752Z,72.53
2018-08-20T01:19:35.056Z,72.48
2018-08-20T01:22:01.381Z,72.48
2018-08-20T01:24:27.688Z,72.49
2018-08-20T01:26:54.000Z,72.41
2018-08-20T01:29:20.329Z,72.64
2018-08-20T01:31:46.635Z,72.48
2018-08-20T01:34:12.947Z,72.45
2018-08-20T01:36:39.262Z,72.42
2018-08-20T01:39:05.579Z,72.71
2018-08-20T01:41:31.895Z,72.68
2018-08-20T01:43:58.204Z,72.95
2018-08-20T01:46:24.553Z,73.07
2018-08-20T01:48:50.922Z,73.14
2018-08-20T01:51:17.237Z,73.19
2018-08-20T01:53:43.554Z,72.78
2018-08-20T01:56:09.914Z,72.33
2018-08-20T01:58:36.232Z,72.13
2018-08-20T02:01:02.539Z,72.34
2018-08-20T02:03:28.863Z,72.08
2018-08-20T02:05:55.172Z,71.67
2018-08-20T02:08:21.479Z,71.76
2018-08-20T02:10:47.791Z,72.26
2018-08-20T02:13:14.109Z,72.42
2018-08-20T02:15:40.434Z,72.88
2018-08-20T02:18:06.735Z,72.68
2018-08-20T02:20:33.043Z,72.66
2018-08-20T02:22:59.364Z,72.37
2018-08-20T02:25:25.681Z,72.72
2018-08-20T02:27:51.994Z,72.12
2018-08-20T02:30:18.306Z,72.50
2018-08-20T02:32:44.611Z,72.74
2018-08-20T02:35:10.925Z,72.71
2018-08-20T02:37:37.240Z,72.02
2018-08-20T02:40:03.622Z,71.69
2018-08-20T02:42:29.926Z,72.72
2018-08-20T02:44:56.241Z,73.04
2018-08-20T02:47:22.599Z,72.78
2018-08-20T02:49:48.909Z,72.33
2018-08-20T02:52:15.227Z,71.60
2018-08-20T02:54:41.547Z,71.35
2018-08-20T02:57:07.861Z,71.63
2018-08-20T02:59:34.168Z,71.60
2018-08-20T03:02:00.516Z,72.10
2018-08-20T03:04:26.814Z,72.16
2018-08-20T03:06:53.125Z,72.06
2018-08-20T03:09:19.445Z,72.25
2018-08-20T03:11:45.764Z,72.66
2018-08-20T03:14:12.096Z,72.89
2018-08-20T03:16:38.408Z,73.11
2018-08-20T03:19:04.732Z,73.16
2018-08-20T03:21:31.040Z,73.18
2018-08-20T03:23:57.370Z,73.48
2018-08-20T03:26:23.662Z,73.92
2018-08-20T03:28:49.967Z,73.85
2018-08-20T03:31:16.276Z,73.81
2018-08-20T03:33:42.585Z,74.04
2018-08-20T03:36:08.894Z,74.01
2018-08-20T03:38:35.208Z,74.31
2018-08-20T03:41:01.524Z,74.33
2018-08-20T03:43:27.839Z,74.23
2018-08-20T03:45:54.151Z,74.17
2018-08-20T03:48:20.465Z,74.19
2018-08-20T03:50:46.775Z,73.85
2018-08-20T03:53:13.088Z,74.52
2018-08-20T03:55:39.396Z,73.97
2018-08-20T03:58:05.709Z,74.21
2018-08-20T04:00:32.024Z,74.89
2018-08-20T04:02:58.323Z,75.12
2018-08-20T04:05:24.636Z,75.29
2018-08-20T04:07:50.939Z,74.78
2018-08-20T04:10:17.246Z,75.53
2018-08-20T04:12:43.555Z,76.00
2018-08-20T04:15:09.871Z,75.64
2018-08-20T04:17:36.180Z,75.00
2018-08-20T04:20:02.506Z,75.19
2018-08-20T04:22:28.816Z,75.30
2018-08-20T04:24:55.129Z,75.96
2018-08-20T04:27:21.487Z,75.96
2018-08-20T04:29:47.801Z,76.61
2018-08-20T04:32:14.104Z,76.77
2018-08-20T04:34:40.422Z,76.50
2018-08-20T04:37:06.730Z,76.53
2018-08-20T04:39:33.040Z,76.70
2018-08-20T04:41:59.356Z,77.42
2018-08-20T04:44:25.675Z,77.53
2018-08-20T04:46:51.980Z,77.42
2018-08-20T04:49:18.329Z,77.05
2018-08-20T04:51:44.636Z,76.68
2018-08-20T04:54:10.946Z,76.53
2018-08-20T04:56:37.270Z,76.06
2018-08-20T04:59:03.582Z,75.58
2018-08-20T05:01:29.894Z,75.67
2018-08-20T05:03:56.218Z,75.21
2018-08-20T05:06:22.531Z,75.24
2018-08-20T05:08:48.845Z,74.92
2018-08-20T05:11:15.160Z,74.08
2018-08-20T05:13:41.473Z,74.38
2018-08-20T05:16:07.786Z,74.68
2018-08-20T05:18:34.103Z,75.13
2018-08-20T05:21:00.409Z,77.65
2018-08-20T05:23:26.720Z,74.16
2018-08-20T05:25:53.033Z,73.54
2018-08-20T05:28:19.343Z,73.30
2018-08-20T05:30:45.653Z,73.45
2018-08-20T05:33:12.001Z,73.03
2018-08-20T05:35:38.311Z,72.67
2018-08-20T05:38:04.647Z,71.52
2018-08-20T05:40:30.972Z,72.09
2018-08-20T05:42:57.280Z,71.78
2018-08-20T05:45:23.594Z,71.71
2018-08-20T05:47:49.903Z,71.89
2018-08-20T05:50:16.209Z,71.46
2018-08-20T05:52:42.570Z,71.94
2018-08-20T05:55:08.841Z,71.10
2018-08-20T05:57:35.164Z,70.86
2018-08-20T06:00:01.475Z,71.00
2018-08-20T06:02:27.785Z,70.84
2018-08-20T06:04:54.094Z,70.77
2018-08-20T06:07:20.400Z,70.57
2018-08-20T06:09:46.712Z,69.98
2018-08-20T06:12:13.020Z,69.94
2018-08-20T06:14:39.378Z,69.41
2018-08-20T06:17:05.680Z,69.92
2018-08-20T06:19:31.997Z,68.38
2018-08-20T06:21:58.303Z,68.61
2018-08-20T06:24:24.613Z,68.05
2018-08-20T06:26:50.929Z,67.76
2018-08-20T06:29:17.240Z,67.62
2018-08-20T06:31:43.548Z,67.60
2018-08-20T06:34:09.862Z,67.70
2018-08-20T06:36:36.179Z,66.66
2018-08-20T06:39:02.488Z,66.19
2018-08-20T06:41:28.847Z,66.14
2018-08-20T06:43:55.154Z,65.87
2018-08-20T06:46:21.469Z,68.50
2018-08-20T06:48:47.792Z,71.71
2018-08-20T06:51:14.093Z,74.97
2018-08-20T06:53:40.395Z,74.53
2018-08-20T06:56:06.725Z,76.76
2018-08-20T06:58:33.036Z,75.41
2018-08-20T07:00:59.401Z,74.63
2018-08-20T07:03:25.774Z,72.70
2018-08-20T07:05:52.081Z,75.35
2018-08-20T07:08:18.402Z,76.67
2018-08-20T07:10:44.708Z,77.40
2018-08-20T07:13:11.020Z,78.29
2018-08-20T07:15:37.336Z,80.18
2018-08-20T07:18:03.647Z,79.02
2018-08-20T07:20:29.955Z,77.17
2018-08-20T07:22:56.278Z,70.82
2018-08-20T07:25:22.580Z,68.30
2018-08-20T07:27:48.926Z,65.81
2018-08-20T07:30:15.231Z,69.45
2018-08-20T07:32:41.548Z,69.12
2018-08-20T07:35:07.861Z,68.10
2018-08-20T07:37:34.169Z,68.23
2018-08-20T07:40:00.486Z,67.99
2018-08-20T07:42:26.804Z,74.03
2018-08-20T07:44:53.109Z,72.76
2018-08-20T07:47:19.423Z,68.30
2018-08-20T07:49:45.727Z,68.48
2018-08-20T07:52:12.053Z,67.74
2018-08-20T07:54:38.373Z,66.93
2018-08-20T07:57:04.695Z,63.55
2018-08-20T07:59:31.003Z,60.69
2018-08-20T08:01:57.316Z,61.96
2018-08-20T08:04:23.619Z,58.94
2018-08-20T08:06:49.942Z,58.06
2018-08-20T08:09:16.255Z,59.75
2018-08-20T08:11:42.564Z,59.74
2018-08-20T08:14:08.889Z,65.10
2018-08-20T08:16:35.211Z,65.71
2018-08-20T08:19:01.534Z,60.71
2018-08-20T08:21:27.843Z,57.51
2018-08-20T08:23:54.152Z,56.31
2018-08-20T08:26:20.460Z,56.20
2018-08-20T08:28:46.772Z,57.25
2018-08-20T08:31:13.085Z,54.69
2018-08-20T08:33:39.402Z,52.19
2018-08-20T08:36:05.707Z,55.00
2018-08-20T08:38:32.015Z,54.06
2018-08-20T08:40:58.327Z,56.37
2018-08-20T08:43:24.640Z,55.02
2018-08-20T08:45:50.994Z,54.88
2018-08-20T08:48:17.344Z,54.72
2018-08-20T08:50:43.647Z,55.64
2018-08-20T08:53:09.982Z,52.45
2018-08-20T08:55:36.295Z,53.09
2018-08-20T08:58:02.607Z,51.26
2018-08-20T09:00:28.998Z,49.42
2018-08-20T09:02:55.249Z,48.28
2018-08-20T09:05:21.560Z,48.62
2018-08-20T09:07:47.879Z,47.12
2018-08-20T09:10:14.189Z,47.71
2018-08-20T09:12:40.541Z,50.20
2018-08-20T09:15:06.849Z,50.68
2018-08-20T09:17:33.163Z,50.40
2018-08-20T09:19:59.513Z,49.95
2018-08-20T09:22:25.860Z,48.89
2018-08-20T09:24:52.171Z,49.64
2018-08-20T09:27:18.505Z,49.64
2018-08-20T09:29:44.815Z,49.41
2018-08-20T09:32:11.141Z,49.13
2018-08-20T09:34:37.448Z,49.06
2018-08-20T09:37:03.761Z,49.24
2018-08-20T09:39:30.080Z,48.07
2018-08-20T09:41:56.972Z,44.67
2018-08-20T09:44:23.139Z,46.66
2018-08-20T09:46:49.463Z,47.01
2018-08-20T09:49:15.771Z,48.10
2018-08-20T09:51:42.096Z,47.84
2018-08-20T09:54:08.419Z,44.08
2018-08-20T09:56:34.751Z,45.40
2018-08-20T09:59:01.070Z,45.97
2018-08-20T10:01:27.394Z,47.31
2018-08-20T10:03:53.709Z,47.88
2018-08-20T10:06:20.037Z,48.25
2018-08-20T10:08:46.365Z,48.26
2018-08-20T10:11:12.676Z,48.47
2018-08-20T10:13:39.059Z,48.14
2018-08-20T10:16:05.361Z,47.80
2018-08-20T10:18:31.870Z,47.04
2018-08-20T10:20:58.184Z,46.66
2018-08-20T10:23:24.511Z,46.44
2018-08-20T10:25:50.826Z,45.70
2018-08-20T10:28:17.147Z,45.80
2018-08-20T10:30:43.482Z,46.09
2018-08-20T10:33:09.794Z,44.99
2018-08-20T10:35:36.115Z,46.26
2018-08-20T10:38:02.512Z,46.51
2018-08-20T10:40:28.751Z,47.02
2018-08-20T10:42:55.063Z,46.80
2018-08-20T10:45:21.425Z,46.40
2018-08-20T10:47:47.769Z,46.95
2018-08-20T10:50:14.127Z,47.12
2018-08-20T10:52:40.440Z,46.80
2018-08-20T10:55:06.747Z,47.21
2018-08-20T10:57:33.130Z,46.07
2018-08-20T10:59:59.439Z,46.13
2018-08-20T11:02:25.794Z,47.25
2018-08-20T11:04:52.112Z,46.92
2018-08-20T11:07:18.497Z,46.05
2018-08-20T11:09:44.907Z,45.40
2018-08-20T11:12:11.253Z,46.66
2018-08-20T11:14:37.637Z,44.59
2018-08-20T11:17:03.937Z,45.19
2018-08-20T11:19:30.328Z,46.25
2018-08-20T11:21:56.693Z,45.01
2018-08-20T11:24:23.004Z,45.12
2018-08-20T11:26:49.398Z,46.64
2018-08-20T11:29:15.774Z,47.89
2018-08-20T11:31:42.159Z,47.52
2018-08-20T11:34:08.523Z,44.91
2018-08-20T11:36:34.914Z,46.35
2018-08-20T11:39:01.222Z,44.06
2018-08-20T11:41:27.541Z,45.10
2018-08-20T11:43:53.910Z,47.26
2018-08-20T11:46:20.200Z,49.94
2018-08-20T11:48:46.522Z,51.82
2018-08-20T11:51:12.876Z,52.84
2018-08-20T11:53:39.220Z,52.84
2018-08-20T11:56:05.538Z,52.03
2018-08-20T11:58:35.086Z,51.85
2018-08-20T12:01:01.396Z,53.06
2018-08-20T12:03:42.885Z,52.54
2018-08-20T12:06:07.995Z,52.94
2018-08-20T12:08:40.526Z,53.11
2018-08-20T12:11:01.050Z,53.71
2018-08-20T12:13:27.365Z,53.58
2018-08-20T12:15:55.562Z,52.97
2018-08-20T12:18:27.997Z,52.39
2018-08-20T12:20:57.957Z,51.95
2018-08-20T12:23:24.251Z,51.81
2018-08-20T12:25:50.582Z,52.02
2018-08-20T12:28:18.750Z,52.25
2018-08-20T12:30:43.287Z,52.88
2018-08-20T12:33:09.919Z,53.42
2018-08-20T12:35:43.665Z,54.05
2018-08-20T12:38:10.063Z,54.21
2018-08-20T12:40:37.924Z,54.40
2018-08-20T12:43:03.109Z,54.97
2018-08-20T12:45:29.682Z,54.27
2018-08-20T12:47:55.967Z,54.29
2018-08-20T12:50:22.293Z,53.72
2018-08-20T12:52:48.658Z,54.06
2018-08-20T12:55:15.017Z,53.62
2018-08-20T12:57:41.553Z,53.06
2018-08-20T13:00:07.898Z,52.87
2018-08-20T13:05:20.521Z,52.85
2018-08-20T13:07:46.832Z,53.16
2018-08-20T13:10:15.806Z,52.59
2018-08-20T13:12:42.336Z,52.38
2018-08-20T13:15:08.685Z,51.90
2018-08-20T13:17:39.976Z,52.61
2018-08-20T13:20:06.286Z,53.12
2018-08-20T13:22:32.636Z,53.38
2018-08-20T13:24:59.027Z,53.40
2018-08-20T13:27:25.363Z,53.69
2018-08-20T13:29:51.709Z,54.09
2018-08-20T13:32:18.039Z,54.17
2018-08-20T13:34:44.429Z,54.37
2018-08-20T13:37:10.769Z,55.49
2018-08-20T13:39:37.056Z,55.75
2018-08-20T13:42:03.386Z,56.18
2018-08-20T13:44:29.714Z,56.12
2018-08-20T13:46:56.065Z,56.76
2018-08-20T13:49:22.383Z,57.62
2018-08-20T13:51:48.710Z,57.36
2018-08-20T13:54:15.040Z,58.40
2018-08-20T13:56:41.437Z,58.27
2018-08-20T13:59:07.796Z,58.10
2018-08-20T14:01:34.127Z,58.62
2018-08-20T14:04:00.457Z,58.38
2018-08-20T14:06:26.791Z,58.19
2018-08-20T14:08:53.104Z,58.41
2018-08-20T14:11:19.435Z,58.87
2018-08-20T14:13:45.804Z,59.70
2018-08-20T14:16:12.203Z,59.79
2018-08-20T14:18:38.562Z,60.68
2018-08-20T14:21:04.929Z,60.36
2018-08-20T14:23:31.229Z,60.21
2018-08-20T14:25:57.601Z,60.79
2018-08-20T14:28:23.988Z,61.42
2018-08-20T14:30:50.319Z,62.11
2018-08-20T14:33:16.722Z,62.57
2018-08-20T14:35:43.096Z,62.65
2018-08-20T14:38:09.446Z,62.43
2018-08-20T14:40:35.831Z,62.71
2018-08-20T14:43:02.142Z,63.57
2018-08-20T14:45:28.474Z,63.56
2018-08-20T14:47:54.802Z,63.73
2018-08-20T14:50:21.138Z,63.55
2018-08-20T14:52:47.526Z,64.28
2018-08-20T14:55:13.875Z,63.69
2018-08-20T14:57:40.208Z,63.48
2018-08-20T15:00:06.710Z,64.17
2018-08-20T15:02:33.116Z,64.22
2018-08-20T15:04:59.422Z,64.11
2018-08-20T15:07:25.771Z,64.21
2018-08-20T15:09:52.093Z,64.36
2018-08-20T15:12:18.409Z,65.12
2018-08-20T15:14:44.756Z,63.73
2018-08-20T15:17:11.089Z,63.34
2018-08-20T15:19:37.432Z,63.07
2018-08-20T15:22:03.772Z,63.13
2018-08-20T15:24:30.094Z,63.72
2018-08-20T15:26:56.452Z,63.59
2018-08-20T15:29:22.778Z,64.11
2018-08-20T15:31:49.147Z,63.81
2018-08-20T15:34:15.463Z,64.95
2018-08-20T15:36:41.788Z,64.59
2018-08-20T15:39:08.161Z,62.78
2018-08-20T15:41:36.309Z,62.74
2018-08-20T15:44:00.794Z,62.77
2018-08-20T15:46:33.286Z,61.75
2018-08-20T15:48:59.655Z,62.67
2018-08-20T15:51:26.547Z,63.29
2018-08-20T15:53:52.808Z,63.82
2018-08-20T15:56:22.881Z,63.54
2018-08-20T15:58:49.096Z,64.70
2018-08-20T16:01:15.434Z,63.93
2018-08-20T16:03:48.297Z,63.79
2018-08-20T16:06:14.643Z,63.36
2018-08-20T16:11:29.761Z,62.56
2018-08-20T16:14:08.503Z,62.60
2018-08-20T16:16:34.864Z,63.12
2018-08-20T16:19:02.768Z,63.36
2018-08-20T16:21:27.572Z,63.73
2018-08-20T16:23:56.016Z,64.48
2018-08-20T16:26:20.740Z,63.62
2018-08-20T16:28:47.079Z,61.21
2018-08-20T16:31:13.798Z,61.21
2018-08-20T16:33:42.634Z,63.09
2018-08-20T16:36:30.340Z,63.28
2018-08-20T16:38:35.819Z,63.81
2018-08-20T16:41:05.034Z,63.27
2018-08-20T16:43:34.492Z,62.94
2018-08-20T16:46:12.064Z,63.50
2018-08-20T16:48:47.199Z,63.54
2018-08-20T16:51:18.992Z,64.90
2018-08-20T16:53:45.362Z,65.68
2018-08-20T16:56:19.212Z,66.15
2018-08-20T16:59:01.590Z,66.17
2018-08-20T17:01:26.541Z,65.62
2018-08-20T17:04:09.278Z,64.93
2018-08-20T17:06:37.241Z,65.52
2018-08-20T17:09:03.491Z,65.00
2018-08-20T17:11:29.994Z,64.80
2018-08-20T17:14:04.806Z,64.70
2018-08-20T17:16:31.136Z,64.10
2018-08-20T17:18:57.456Z,64.09
2018-08-20T17:21:24.500Z,63.64
2018-08-20T17:23:54.226Z,63.67
2018-08-20T17:26:20.676Z,62.24
2018-08-20T17:28:53.180Z,61.58
2018-08-20T17:31:19.523Z,61.58
2018-08-20T17:33:45.822Z,61.70
2018-08-20T17:36:12.167Z,61.76
2018-08-20T17:38:38.507Z,62.41
2018-08-20T17:41:04.840Z,63.23
2018-08-20T17:43:31.177Z,61.88
2018-08-20T17:45:57.513Z,62.30
2018-08-20T17:48:23.850Z,62.62
2018-08-20T17:50:50.234Z,62.81
2018-08-20T17:53:16.566Z,63.23
2018-08-20T17:55:42.905Z,63.45
2018-08-20T17:58:09.278Z,64.19
2018-08-20T18:00:35.600Z,65.54
2018-08-20T18:03:01.928Z,65.72
2018-08-20T18:05:28.254Z,66.42
2018-08-20T18:07:54.594Z,66.96
2018-08-20T18:10:20.900Z,66.71
2018-08-20T18:12:47.263Z,67.57
2018-08-20T18:15:13.609Z,67.27
2018-08-20T18:17:39.943Z,67.98
2018-08-20T18:20:06.269Z,68.63
2018-08-20T18:22:32.594Z,69.30
2018-08-20T18:24:58.915Z,69.81
2018-08-20T18:27:25.231Z,70.17
2018-08-20T18:29:51.650Z,70.59
2018-08-20T18:32:17.911Z,70.80
2018-08-20T18:34:45.296Z,71.02
2018-08-20T18:37:11.560Z,71.36
2018-08-20T18:39:37.900Z,71.52
2018-08-20T18:42:04.246Z,72.02
2018-08-20T18:44:30.564Z,72.29
2018-08-20T18:46:56.907Z,72.37
2018-08-20T18:49:23.224Z,72.65
2018-08-20T18:51:49.574Z,72.44
2018-08-20T18:54:15.974Z,72.37
2018-08-20T18:56:42.251Z,72.24
2018-08-20T18:59:08.580Z,72.22
2018-08-20T19:01:34.905Z,72.09
2018-08-20T19:04:01.246Z,72.25
2018-08-20T19:06:27.575Z,72.08
2018-08-20T19:08:53.943Z,72.00
2018-08-20T19:11:20.275Z,73.54
2018-08-20T19:13:46.593Z,73.93
2018-08-20T19:16:12.918Z,75.06
2018-08-20T19:18:39.245Z,76.61
2018-08-20T19:21:05.592Z,77.49
2018-08-20T19:23:31.907Z,77.23
2018-08-20T19:25:58.237Z,77.53
2018-08-20T19:28:24.579Z,78.09
2018-08-20T19:30:50.906Z,78.65
2018-08-20T19:33:17.233Z,78.98
2018-08-20T19:35:43.601Z,78.52
2018-08-20T19:38:09.919Z,78.38
2018-08-20T19:40:36.287Z,77.60
2018-08-20T19:43:02.588Z,77.83
2018-08-20T19:45:28.936Z,78.45
2018-08-20T19:47:55.304Z,78.39
2018-08-20T19:50:21.607Z,78.26
2018-08-20T19:52:47.933Z,78.57
2018-08-20T19:55:14.350Z,78.34
2018-08-20T19:57:40.742Z,77.60
2018-08-20T20:00:07.082Z,77.79
2018-08-20T20:02:33.408Z,78.08
2018-08-20T20:04:59.767Z,77.97
2018-08-20T20:07:26.083Z,77.47
2018-08-20T20:09:52.420Z,77.49
2018-08-20T20:12:18.809Z,78.28
2018-08-20T20:14:45.085Z,78.91
2018-08-20T20:17:11.415Z,79.56
2018-08-20T20:19:37.765Z,79.98
2018-08-20T20:22:04.082Z,80.04
2018-08-20T20:24:30.427Z,80.90
2018-08-20T20:26:56.733Z,81.02
2018-08-20T20:29:23.100Z,81.10
2018-08-20T20:31:49.438Z,81.46
2018-08-20T20:34:15.765Z,80.99
2018-08-20T20:36:42.090Z,80.88
2018-08-20T20:39:08.401Z,81.37
2018-08-20T20:41:34.724Z,81.60
2018-08-20T20:44:01.056Z,81.59
2018-08-20T20:46:27.377Z,82.27
2018-08-20T20:48:53.725Z,83.15
2018-08-20T20:51:20.072Z,83.03
2018-08-20T20:53:46.422Z,82.36
2018-08-20T20:56:12.764Z,82.56
2018-08-20T20:58:39.089Z,83.20
2018-08-20T21:01:05.484Z,82.67
2018-08-20T21:03:31.837Z,83.05
2018-08-20T21:05:58.157Z,83.53
2018-08-20T21:08:24.454Z,84.12
2018-08-20T21:10:50.769Z,83.01
2018-08-20T21:13:17.088Z,81.67
2018-08-20T21:15:43.404Z,81.52
2018-08-20T21:18:09.719Z,81.46
2018-08-20T21:20:36.033Z,82.15
2018-08-20T21:23:02.352Z,82.53
2018-08-20T21:25:28.697Z,82.67
2018-08-20T21:27:55.019Z,82.64
2018-08-20T21:30:21.346Z,82.68
2018-08-20T21:32:47.660Z,83.15
2018-08-20T21:35:13.977Z,83.26
2018-08-20T21:37:40.291Z,82.81
2018-08-20T21:40:06.606Z,82.78
2018-08-20T21:42:32.916Z,82.97
2018-08-20T21:44:59.234Z,83.45
2018-08-20T21:47:25.545Z,83.41
2018-08-20T21:49:51.865Z,83.42
2018-08-20T21:52:18.183Z,83.77
2018-08-20T21:54:44.493Z,83.98
2018-08-20T21:57:10.804Z,83.92
2018-08-20T21:59:37.170Z,83.66
2018-08-20T22:02:03.484Z,83.68
2018-08-20T22:04:29.838Z,84.76
2018-08-20T22:06:56.153Z,85.32
2018-08-20T22:09:22.465Z,85.21
2018-08-20T22:11:48.782Z,84.91
2018-08-20T22:14:15.098Z,85.21
2018-08-20T22:16:41.408Z,85.65
2018-08-20T22:19:07.745Z,85.83
2018-08-20T22:21:34.061Z,85.54
2018-08-20T22:24:00.377Z,85.06
2018-08-20T22:26:26.689Z,85.46
2018-08-20T22:28:53.003Z,85.91
2018-08-20T22:31:19.317Z,86.99
2018-08-20T22:33:45.629Z,87.00
2018-08-20T22:36:11.944Z,86.92
2018-08-20T22:38:38.256Z,87.58
2018-08-20T22:41:04.574Z,87.94
2018-08-20T22:43:30.884Z,87.76
2018-08-20T22:45:57.196Z,87.30
2018-08-20T22:48:23.508Z,87.15
2018-08-20T22:50:49.891Z,86.93
2018-08-20T22:53:16.196Z,86.98
2018-08-20T22:55:42.512Z,86.79
2018-08-20T22:58:08.818Z,87.12
2018-08-20T23:00:35.129Z,86.68
2018-08-20T23:03:01.444Z,86.23
2018-08-20T23:05:27.750Z,86.39
2018-08-20T23:07:54.067Z,85.55
2018-08-20T23:10:20.377Z,85.30
2018-08-20T23:12:46.683Z,85.28
2018-08-20T23:15:12.999Z,84.44
2018-08-20T23:17:39.312Z,84.91
2018-08-20T23:20:05.622Z,84.48
2018-08-20T23:22:31.933Z,84.02
2018-08-20T23:25:01.318Z,84.61
2018-08-20T23:27:27.641Z,84.74
2018-08-20T23:29:53.997Z,85.68
2018-08-20T23:32:20.348Z,86.36
2018-08-20T23:34:46.663Z,86.86
2018-08-20T23:37:12.971Z,86.76
2018-08-20T23:39:39.284Z,86.67
2018-08-20T23:42:05.596Z,86.50
2018-08-20T23:44:31.904Z,86.13
2018-08-20T23:46:58.219Z,86.00
2018-08-20T23:49:24.560Z,87.25
2018-08-20T23:51:50.900Z,88.38
2018-08-20T23:54:17.250Z,88.90
2018-08-20T23:56:43.569Z,88.55
2018-08-20T23:59:09.887Z,88.23
